Time;durP1;ratioP1;P1;durP2;ratioP2;P2;SDS_P1;SDS_P2;PMS_P1;PMS_P2;Temp;Humidity;BMP_temperature;BMP_pressure;BME280_temperature;BME280_humidity;BME280_pressure;Samples;Min_cycle;Max_cycle;Signal;HPM_P1;HPM_P2
2023/04/27 00:01:13;;;;;;;7.38;3.40;;;3.90;99.90;;;;;;5047099;28;20036;-83
2023/04/27 00:03:40;;;;;;;9.70;3.30;;;3.90;99.90;;;;;;5055595;28;20040;-83
2023/04/27 00:06:07;;;;;;;10.60;3.92;;;3.80;99.90;;;;;;5064433;28;20047;-83
2023/04/27 00:08:32;;;;;;;9.73;3.20;;;3.80;99.90;;;;;;5078340;28;20513;-83
2023/04/27 00:10:59;;;;;;;10.10;3.47;;;3.80;99.90;;;;;;5075749;28;20046;-83
2023/04/27 00:13:25;;;;;;;11.18;4.25;;;3.80;99.90;;;;;;5049637;28;20051;-83
2023/04/27 00:15:51;;;;;;;10.95;4.00;;;3.80;99.90;;;;;;5075379;28;20408;-83
2023/04/27 00:18:17;;;;;;;8.65;3.58;;;3.80;99.90;;;;;;5075759;28;20040;-83
2023/04/27 00:20:43;;;;;;;8.93;3.85;;;3.70;99.90;;;;;;5051594;28;20115;-83
2023/04/27 00:23:09;;;;;;;14.10;4.53;;;3.70;99.90;;;;;;5039096;28;20040;-83
2023/04/27 00:25:34;;;;;;;8.60;3.17;;;3.70;99.90;;;;;;5070122;28;20107;-83
2023/04/27 00:28:00;;;;;;;10.98;3.65;;;3.70;99.90;;;;;;5075848;28;20032;-83
2023/04/27 00:30:26;;;;;;;10.00;3.67;;;3.60;99.90;;;;;;5070126;28;20036;-83
2023/04/27 00:32:51;;;;;;;8.40;3.03;;;3.60;99.90;;;;;;5070966;28;20059;-85
2023/04/27 00:35:17;;;;;;;9.07;3.42;;;3.60;99.90;;;;;;5075460;28;20043;-84
2023/04/27 00:37:43;;;;;;;11.20;3.65;;;3.60;99.90;;;;;;5065519;28;20039;-84
2023/04/27 00:40:09;;;;;;;9.68;3.90;;;3.60;99.90;;;;;;5074670;28;20119;-85
2023/04/27 00:42:35;;;;;;;13.10;3.85;;;3.60;99.90;;;;;;5074868;28;20039;-85
2023/04/27 00:45:02;;;;;;;10.73;3.95;;;3.60;99.90;;;;;;5057827;28;20034;-85
2023/04/27 00:47:29;;;;;;;9.52;3.72;;;3.60;99.90;;;;;;5058469;28;20081;-85
2023/04/27 00:49:55;;;;;;;8.77;3.05;;;3.60;99.90;;;;;;5063623;28;20048;-85
2023/04/27 00:52:21;;;;;;;9.50;3.65;;;3.50;99.90;;;;;;5038013;28;20123;-85
2023/04/27 00:54:50;;;;;;;9.38;3.70;;;3.50;99.90;;;;;;5054770;28;20123;-85
2023/04/27 00:57:16;;;;;;;6.63;2.80;;;3.40;99.90;;;;;;5051218;28;20082;-84
2023/04/27 00:59:42;;;;;;;8.30;3.10;;;3.40;99.90;;;;;;5074875;28;20028;-85
2023/04/27 01:02:10;;;;;;;8.88;3.28;;;3.40;99.90;;;;;;5057633;28;20032;-85
2023/04/27 01:04:36;;;;;;;7.07;3.03;;;3.30;99.90;;;;;;5037832;28;20044;-85
2023/04/27 01:07:02;;;;;;;8.82;3.58;;;3.30;99.90;;;;;;5037795;28;20036;-85
2023/04/27 01:09:28;;;;;;;8.73;3.17;;;3.30;99.90;;;;;;5072750;28;20110;-85
2023/04/27 01:11:53;;;;;;;13.82;4.03;;;3.30;99.90;;;;;;5057873;28;20643;-85
2023/04/27 01:14:19;;;;;;;10.13;3.40;;;3.30;99.90;;;;;;5073563;28;20088;-84
2023/04/27 01:16:45;;;;;;;10.68;3.95;;;3.30;99.90;;;;;;5054355;28;20089;-85
2023/04/27 01:19:11;;;;;;;13.55;4.68;;;3.30;99.90;;;;;;5053955;28;20410;-84
2023/04/27 01:21:36;;;;;;;9.00;3.10;;;3.30;99.90;;;;;;5049809;28;20035;-85
2023/04/27 01:24:06;;;;;;;10.60;4.47;;;3.30;99.90;;;;;;5073909;28;20047;-85
2023/04/27 01:26:32;;;;;;;8.20;3.55;;;3.30;99.90;;;;;;5073745;28;20055;-85
2023/04/27 01:28:57;;;;;;;11.82;4.57;;;3.30;99.90;;;;;;5073476;28;20036;-85
2023/04/27 01:31:23;;;;;;;9.25;3.72;;;3.30;99.90;;;;;;5073361;28;20032;-85
2023/04/27 01:33:49;;;;;;;10.57;3.92;;;3.30;99.90;;;;;;5073805;28;20032;-85
2023/04/27 01:36:14;;;;;;;10.95;3.75;;;3.30;99.90;;;;;;5074006;28;20101;-85
2023/04/27 01:38:40;;;;;;;10.85;4.40;;;3.30;99.90;;;;;;5060786;28;20123;-85
2023/04/27 01:41:08;;;;;;;9.60;4.25;;;3.30;99.90;;;;;;5053734;28;20513;-85
2023/04/27 01:43:35;;;;;;;11.27;5.07;;;3.20;99.90;;;;;;5036923;28;20040;-85
2023/04/27 01:46:11;;;;;;;9.40;3.97;;;3.20;99.90;;;;;;5036510;28;20032;-85
2023/04/27 01:48:38;;;;;;;9.63;4.00;;;3.20;99.90;;;;;;5053517;28;20119;-85
2023/04/27 01:51:03;;;;;;;12.88;4.03;;;3.20;99.90;;;;;;5058386;28;20039;-85
2023/04/27 01:53:30;;;;;;;9.13;4.10;;;3.10;99.90;;;;;;5073605;28;20421;-85
2023/04/27 01:55:56;;;;;;;9.93;3.97;;;3.10;99.90;;;;;;5073643;28;20044;-85
2023/04/27 01:58:21;;;;;;;10.73;4.25;;;3.10;99.90;;;;;;5048290;28;20132;-85
2023/04/27 02:00:47;;;;;;;10.32;4.38;;;3.10;99.90;;;;;;5052926;28;20472;-85
2023/04/27 02:03:12;;;;;;;12.93;4.57;;;3.00;99.90;;;;;;5052864;28;20040;-85
2023/04/27 02:05:38;;;;;;;11.18;4.50;;;3.00;99.90;;;;;;5044035;28;20040;-85
2023/04/27 02:08:04;;;;;;;11.27;4.75;;;3.00;99.90;;;;;;5072279;28;20067;-85
2023/04/27 02:10:30;;;;;;;8.15;3.55;;;3.00;99.90;;;;;;5062928;28;20489;-85
2023/04/27 02:12:56;;;;;;;10.32;3.65;;;3.00;99.90;;;;;;5072855;28;20194;-85
2023/04/27 02:15:21;;;;;;;6.82;2.70;;;2.90;99.90;;;;;;5056779;28;20036;-85
2023/04/27 02:17:47;;;;;;;11.82;2.55;;;2.90;99.90;;;;;;5041323;28;20033;-85
2023/04/27 02:20:13;;;;;;;21.02;2.83;;;2.90;99.90;;;;;;5052814;28;20044;-85
2023/04/27 02:22:43;;;;;;;14.43;2.05;;;2.80;99.90;;;;;;5053345;28;20072;-85
2023/04/27 02:25:10;;;;;;;5.60;1.92;;;2.70;99.90;;;;;;5055207;28;20515;-85
2023/04/27 02:27:40;;;;;;;14.50;2.25;;;2.70;99.90;;;;;;5073766;28;20055;-85
2023/04/27 02:30:07;;;;;;;8.20;2.35;;;2.60;99.90;;;;;;5056771;28;20063;-85
2023/04/27 02:32:33;;;;;;;7.22;2.72;;;2.60;99.90;;;;;;5053312;28;20036;-85
2023/04/27 02:34:58;;;;;;;8.30;2.80;;;2.50;99.90;;;;;;5052874;28;20028;-85
2023/04/27 02:37:24;;;;;;;9.23;3.42;;;2.50;99.90;;;;;;5068346;28;20036;-85
2023/04/27 02:39:50;;;;;;;8.68;2.95;;;2.50;99.90;;;;;;5072454;28;20032;-85
2023/04/27 02:42:16;;;;;;;9.57;4.13;;;2.50;99.90;;;;;;5040841;28;20482;-85
2023/04/27 02:44:41;;;;;;;10.07;4.15;;;2.50;99.90;;;;;;5053172;28;20040;-85
2023/04/27 02:47:07;;;;;;;11.20;4.43;;;2.50;99.90;;;;;;5053702;28;20040;-85
2023/04/27 02:49:34;;;;;;;8.57;3.33;;;2.50;99.90;;;;;;5071717;28;20405;-85
2023/04/27 02:51:59;;;;;;;9.13;3.72;;;2.50;99.90;;;;;;5072269;28;20550;-85
2023/04/27 02:54:25;;;;;;;8.93;3.75;;;2.50;99.90;;;;;;5072182;28;20250;-85
2023/04/27 02:56:51;;;;;;;10.23;4.25;;;2.50;99.90;;;;;;5072579;28;20040;-85
2023/04/27 02:59:17;;;;;;;10.25;3.95;;;2.50;99.90;;;;;;5056156;28;20123;-85
2023/04/27 03:01:42;;;;;;;9.85;4.18;;;2.50;99.90;;;;;;5063669;28;20123;-85
2023/04/27 03:04:08;;;;;;;9.48;4.22;;;2.50;99.90;;;;;;5035703;28;20141;-85
2023/04/27 03:06:34;;;;;;;9.02;4.18;;;2.50;99.90;;;;;;5035610;28;20036;-85
2023/04/27 03:08:59;;;;;;;10.15;4.38;;;2.50;99.90;;;;;;5052757;28;20044;-85
2023/04/27 03:11:25;;;;;;;10.15;3.88;;;2.50;99.90;;;;;;5052044;28;20045;-85
2023/04/27 03:13:51;;;;;;;12.57;4.30;;;2.40;99.90;;;;;;5051725;28;20040;-85
2023/04/27 03:16:16;;;;;;;9.32;4.60;;;2.40;99.90;;;;;;5052020;28;20040;-85
2023/04/27 03:18:42;;;;;;;14.70;4.07;;;2.40;99.90;;;;;;5065093;28;20115;-85
2023/04/27 03:21:09;;;;;;;10.10;4.63;;;2.40;99.90;;;;;;5055012;28;20039;-85
2023/04/27 03:23:35;;;;;;;9.80;4.05;;;2.30;99.90;;;;;;5072066;28;20131;-85
2023/04/27 03:26:19;;;;;;;9.73;4.38;;;2.30;99.90;;;;;;5071155;28;20071;-85
2023/04/27 03:28:45;;;;;;;13.27;4.75;;;2.30;99.90;;;;;;5055424;28;20097;-85
2023/04/27 03:31:12;;;;;;;11.35;4.88;;;2.30;99.90;;;;;;5053343;28;20063;-85
2023/04/27 03:33:39;;;;;;;13.45;4.50;;;2.30;99.90;;;;;;5047483;28;20044;-85
2023/04/27 03:36:05;;;;;;;11.50;5.28;;;2.30;99.90;;;;;;5072040;28;20046;-85
2023/04/27 03:38:32;;;;;;;10.30;4.80;;;2.30;99.90;;;;;;5044106;28;20063;-85
2023/04/27 03:40:57;;;;;;;12.75;5.03;;;2.30;99.90;;;;;;5034847;28;20072;-85
2023/04/27 03:43:24;;;;;;;11.88;5.15;;;2.30;99.90;;;;;;5059151;28;20074;-85
2023/04/27 03:45:49;;;;;;;11.65;4.95;;;2.30;99.90;;;;;;5035787;28;20054;-85
2023/04/27 03:48:15;;;;;;;11.88;4.25;;;2.20;99.90;;;;;;5051703;28;20075;-85
2023/04/27 03:50:42;;;;;;;10.23;4.45;;;2.20;99.90;;;;;;5054076;28;20130;-85
2023/04/27 03:53:07;;;;;;;10.40;5.28;;;2.20;99.90;;;;;;5073762;28;20064;-85
2023/04/27 03:55:36;;;;;;;11.35;4.43;;;2.20;99.90;;;;;;5076313;28;20063;-85
2023/04/27 03:58:02;;;;;;;10.48;4.53;;;2.20;99.90;;;;;;5049875;28;20082;-85
2023/04/27 04:00:27;;;;;;;14.10;5.32;;;2.10;99.90;;;;;;5075335;28;20465;-85
2023/04/27 04:02:53;;;;;;;14.75;5.55;;;2.10;99.90;;;;;;5050013;28;20037;-85
2023/04/27 04:05:18;;;;;;;10.00;4.30;;;2.10;99.90;;;;;;5075601;28;20035;-84
2023/04/27 04:07:44;;;;;;;11.25;4.57;;;2.10;99.90;;;;;;5075846;28;20684;-85
2023/04/27 04:10:10;;;;;;;10.25;4.20;;;2.10;99.90;;;;;;5061096;28;20047;-85
2023/04/27 04:12:36;;;;;;;8.88;3.92;;;2.10;99.90;;;;;;5055408;28;20123;-85
2023/04/27 04:15:02;;;;;;;10.25;4.32;;;2.10;99.90;;;;;;5038634;28;20638;-85
2023/04/27 04:17:28;;;;;;;11.02;5.10;;;2.00;99.90;;;;;;5055075;28;20032;-84
2023/04/27 04:19:54;;;;;;;10.77;4.20;;;2.00;99.90;;;;;;5055463;28;20170;-85
2023/04/27 04:22:20;;;;;;;10.40;4.28;;;2.00;99.90;;;;;;5038485;28;20048;-84
2023/04/27 04:24:46;;;;;;;10.23;4.35;;;2.00;99.90;;;;;;5038512;28;20036;-85
2023/04/27 04:27:12;;;;;;;12.63;5.25;;;2.00;99.90;;;;;;5043282;28;20032;-85
2023/04/27 04:29:37;;;;;;;9.13;4.20;;;2.00;99.90;;;;;;5058751;28;20037;-85
2023/04/27 04:32:03;;;;;;;10.00;4.15;;;1.90;99.90;;;;;;5055453;28;20067;-85
2023/04/27 04:34:29;;;;;;;11.00;3.80;;;2.00;99.90;;;;;;5038255;28;20033;-85
2023/04/27 04:36:56;;;;;;;10.52;4.97;;;2.00;99.90;;;;;;5038412;28;20033;-85
2023/04/27 04:39:22;;;;;;;10.30;4.53;;;1.90;99.90;;;;;;5055629;28;20087;-85
2023/04/27 04:41:48;;;;;;;11.60;5.28;;;1.90;99.90;;;;;;5066137;28;20060;-85
2023/04/27 04:44:14;;;;;;;10.20;4.88;;;1.90;99.90;;;;;;5058481;28;20136;-85
2023/04/27 04:46:41;;;;;;;11.68;4.57;;;2.00;99.90;;;;;;5058590;28;20040;-85
2023/04/27 04:49:07;;;;;;;12.55;5.63;;;2.00;99.90;;;;;;5049487;28;20028;-85
2023/04/27 04:51:33;;;;;;;10.85;5.18;;;2.00;99.90;;;;;;5055872;28;20131;-85
2023/04/27 04:53:58;;;;;;;13.60;5.65;;;2.10;99.90;;;;;;5070624;28;20651;-85
2023/04/27 04:56:24;;;;;;;11.80;5.55;;;2.10;99.90;;;;;;5068215;28;20043;-85
2023/04/27 04:58:50;;;;;;;11.02;4.57;;;2.10;99.90;;;;;;5073854;28;20528;-85
2023/04/27 05:01:15;;;;;;;14.88;5.95;;;2.10;99.90;;;;;;5048767;28;20047;-85
2023/04/27 05:03:41;;;;;;;10.88;5.57;;;2.20;99.90;;;;;;5053456;28;20037;-85
2023/04/27 05:06:07;;;;;;;11.02;5.43;;;2.20;99.90;;;;;;5037627;28;20037;-85
2023/04/27 05:08:32;;;;;;;10.90;5.60;;;2.10;99.90;;;;;;5045412;28;20028;-85
2023/04/27 05:10:58;;;;;;;11.38;5.70;;;2.10;99.90;;;;;;5053845;28;20040;-85
2023/04/27 05:13:24;;;;;;;12.70;5.47;;;2.10;99.90;;;;;;5052510;28;20067;-85
2023/04/27 05:15:50;;;;;;;11.48;5.30;;;2.10;99.90;;;;;;5059037;28;20524;-86
2023/04/27 05:18:16;;;;;;;12.00;5.15;;;2.10;99.90;;;;;;5054169;28;20040;-85
2023/04/27 05:20:42;;;;;;;10.27;4.93;;;2.10;99.90;;;;;;5066782;28;20038;-85
2023/04/27 05:23:07;;;;;;;10.27;4.00;;;2.10;99.90;;;;;;5056713;28;20540;-85
2023/04/27 05:25:40;;;;;;;11.43;4.57;;;2.10;99.90;;;;;;5073398;28;20036;-85
2023/04/27 05:28:09;;;;;;;11.45;4.68;;;2.10;99.90;;;;;;5038416;28;20036;-86
2023/04/27 05:30:35;;;;;;;13.63;5.40;;;2.10;99.90;;;;;;5064389;28;20039;-86
2023/04/27 05:33:02;;;;;;;14.27;6.88;;;2.20;99.90;;;;;;5070690;28;20067;-86
2023/04/27 05:35:29;;;;;;;11.02;4.75;;;2.20;99.90;;;;;;5036218;28;20040;-86
2023/04/27 05:37:55;;;;;;;10.05;4.40;;;2.30;99.90;;;;;;5052998;28;20040;-86
2023/04/27 05:40:21;;;;;;;12.90;5.15;;;2.40;99.90;;;;;;5056183;28;20044;-86
2023/04/27 05:42:47;;;;;;;12.90;5.93;;;2.40;99.90;;;;;;5056215;28;20047;-86
2023/04/27 05:45:12;;;;;;;14.85;6.78;;;2.50;99.90;;;;;;5066319;28;20585;-86
2023/04/27 05:47:38;;;;;;;14.00;6.80;;;2.60;99.90;;;;;;5053235;28;20040;-85
2023/04/27 05:50:05;;;;;;;13.43;6.95;;;2.60;99.90;;;;;;5053180;28;20500;-86
2023/04/27 05:52:31;;;;;;;11.82;5.55;;;2.70;99.90;;;;;;5056693;28;20509;-86
2023/04/27 05:55:00;;;;;;;14.90;6.97;;;2.80;99.90;;;;;;5073190;28;20509;-86
2023/04/27 05:57:26;;;;;;;13.18;6.28;;;2.80;99.90;;;;;;5054946;28;20489;-86
2023/04/27 05:59:52;;;;;;;14.23;5.97;;;2.90;99.90;;;;;;5067217;28;20105;-85
2023/04/27 06:02:18;;;;;;;15.00;6.53;;;3.00;99.90;;;;;;5072398;28;20036;-85
2023/04/27 06:04:45;;;;;;;16.42;7.00;;;3.10;99.90;;;;;;5070078;28;20505;-86
2023/04/27 06:07:15;;;;;;;12.20;6.05;;;3.20;99.90;;;;;;5071398;28;20143;-85
2023/04/27 06:09:41;;;;;;;14.38;6.07;;;3.30;99.90;;;;;;5072346;28;20081;-86
2023/04/27 06:12:07;;;;;;;14.63;6.72;;;3.40;99.90;;;;;;5072739;28;20036;-86
2023/04/27 06:14:35;;;;;;;12.48;5.43;;;3.50;99.90;;;;;;5075027;28;20036;-86
2023/04/27 06:17:01;;;;;;;12.38;6.03;;;3.60;99.90;;;;;;5064889;28;20040;-86
2023/04/27 06:19:27;;;;;;;12.30;5.95;;;3.70;99.90;;;;;;5080247;28;20046;-86
2023/04/27 06:21:54;;;;;;;13.43;6.18;;;3.80;99.90;;;;;;5075188;28;20043;-86
2023/04/27 06:24:20;;;;;;;13.73;5.68;;;3.90;99.90;;;;;;5050072;28;20059;-86
2023/04/27 06:26:46;;;;;;;14.40;6.30;;;3.90;99.90;;;;;;5055891;28;20089;-87
2023/04/27 06:29:12;;;;;;;11.68;5.72;;;4.00;99.90;;;;;;5054758;28;20036;-86
2023/04/27 06:31:37;;;;;;;12.80;6.13;;;4.10;99.90;;;;;;5055680;28;20036;-86
2023/04/27 06:34:03;;;;;;;12.13;7.28;;;4.20;99.90;;;;;;5072324;28;20044;-86
2023/04/27 06:36:30;;;;;;;13.50;6.07;;;4.30;99.90;;;;;;5069732;28;20481;-86
2023/04/27 06:38:56;;;;;;;12.63;6.18;;;4.40;99.90;;;;;;5055952;28;20288;-86
2023/04/27 06:41:23;;;;;;;11.65;6.60;;;4.50;99.90;;;;;;5068679;28;20040;-86
2023/04/27 06:43:49;;;;;;;15.00;6.38;;;4.60;99.90;;;;;;5052475;28;20036;-87
2023/04/27 06:46:14;;;;;;;10.80;5.00;;;4.70;99.90;;;;;;5053221;28;20038;-86
2023/04/27 06:48:40;;;;;;;14.27;5.68;;;4.80;99.90;;;;;;5035653;28;20033;-86
2023/04/27 06:51:06;;;;;;;11.05;4.93;;;4.90;99.90;;;;;;5035624;28;20033;-86
2023/04/27 06:53:32;;;;;;;11.45;4.75;;;4.90;99.90;;;;;;5044224;28;20053;-86
2023/04/27 06:55:58;;;;;;;11.60;4.78;;;5.00;99.90;;;;;;5052590;28;20044;-86
2023/04/27 06:58:23;;;;;;;10.10;4.00;;;5.20;99.90;;;;;;5051314;28;20046;-86
2023/04/27 07:00:49;;;;;;;11.52;4.90;;;5.30;99.90;;;;;;5069490;28;20039;-86
2023/04/27 07:03:15;;;;;;;10.10;4.07;;;5.40;99.90;;;;;;5071444;28;20551;-86
2023/04/27 07:05:41;;;;;;;12.85;4.72;;;5.60;99.90;;;;;;5070583;28;20044;-87
2023/04/27 07:08:06;;;;;;;8.27;3.70;;;5.70;99.90;;;;;;5072086;28;20040;-86
2023/04/27 07:10:32;;;;;;;10.93;4.10;;;5.80;99.90;;;;;;5070754;28;20040;-86
2023/04/27 07:12:58;;;;;;;10.45;4.25;;;5.90;99.90;;;;;;5071428;28;20123;-86
2023/04/27 07:15:23;;;;;;;8.80;3.80;;;6.00;99.90;;;;;;5071652;28;20032;-86
2023/04/27 07:17:55;;;;;;;9.13;3.47;;;6.20;99.90;;;;;;5053987;28;20040;-86
2023/04/27 07:20:21;;;;;;;7.75;3.35;;;6.30;99.90;;;;;;5054891;28;20040;-86
2023/04/27 07:22:46;;;;;;;9.65;3.47;;;6.40;99.90;;;;;;5071786;28;20036;-86
2023/04/27 07:25:12;;;;;;;8.27;3.17;;;6.50;99.90;;;;;;5070868;28;20385;-86
2023/04/27 07:27:38;;;;;;;9.73;3.67;;;6.60;99.90;;;;;;5072022;28;20706;-86
2023/04/27 07:30:08;;;;;;;9.68;3.63;;;6.80;99.90;;;;;;5075297;28;20460;-86
2023/04/27 07:32:38;;;;;;;8.40;2.90;;;6.90;99.90;;;;;;5075409;28;20534;-86
2023/04/27 07:35:04;;;;;;;8.27;2.65;;;7.00;99.90;;;;;;5074535;28;20036;-86
2023/04/27 07:37:30;;;;;;;8.55;2.45;;;7.10;99.90;;;;;;5053378;28;20040;-87
2023/04/27 07:39:56;;;;;;;13.55;3.33;;;7.20;99.90;;;;;;5040769;28;20624;-86
2023/04/27 07:42:22;;;;;;;12.10;2.55;;;7.30;99.90;;;;;;5055751;28;20092;-86
2023/04/27 07:44:49;;;;;;;7.13;2.72;;;7.30;99.90;;;;;;5067642;28;20510;-86
2023/04/27 07:47:15;;;;;;;10.23;2.78;;;7.40;99.90;;;;;;5075639;28;20097;-86
2023/04/27 07:49:40;;;;;;;7.28;2.35;;;7.50;99.90;;;;;;5057277;28;20071;-86
2023/04/27 07:52:07;;;;;;;7.13;2.83;;;7.60;99.90;;;;;;5074787;28;20094;-86
2023/04/27 07:54:33;;;;;;;8.10;2.75;;;7.70;99.90;;;;;;5073259;28;20044;-86
2023/04/27 07:56:59;;;;;;;7.65;2.70;;;7.70;99.90;;;;;;5074428;28;20447;-87
2023/04/27 07:59:28;;;;;;;11.07;3.33;;;7.80;99.90;;;;;;5074841;28;20035;-87
2023/04/27 08:01:54;;;;;;;9.85;3.22;;;7.90;99.90;;;;;;5048505;28;20090;-86
2023/04/27 08:04:19;;;;;;;9.93;3.05;;;8.00;99.90;;;;;;5054595;28;20140;-86
2023/04/27 08:06:45;;;;;;;8.30;2.97;;;8.10;99.90;;;;;;5040993;28;20031;-86
2023/04/27 08:09:11;;;;;;;7.32;2.80;;;8.20;99.90;;;;;;5041817;28;20076;-86
2023/04/27 08:11:36;;;;;;;8.73;2.60;;;8.20;99.90;;;;;;5054122;28;20040;-86
2023/04/27 08:14:02;;;;;;;9.77;3.17;;;8.40;99.90;;;;;;5046073;28;20047;-86
2023/04/27 08:16:28;;;;;;;6.65;2.70;;;8.40;99.90;;;;;;5055061;28;20482;-86
2023/04/27 08:18:53;;;;;;;6.63;2.63;;;8.40;99.90;;;;;;5054269;28;20414;-87
2023/04/27 08:21:19;;;;;;;9.02;2.95;;;8.50;99.90;;;;;;5054339;28;20090;-86
2023/04/27 08:23:44;;;;;;;8.85;3.13;;;8.60;99.90;;;;;;5053901;28;20048;-86
2023/04/27 08:26:14;;;;;;;8.45;2.78;;;8.70;99.90;;;;;;5037398;28;20040;-87
2023/04/27 08:28:40;;;;;;;11.95;2.78;;;8.70;99.90;;;;;;5043224;28;20077;-86
2023/04/27 08:31:05;;;;;;;6.55;2.17;;;8.70;98.00;;;;;;5056562;28;20429;-86
2023/04/27 08:33:31;;;;;;;7.63;2.65;;;8.80;97.40;;;;;;5073632;28;20044;-87
2023/04/27 08:35:57;;;;;;;9.00;2.80;;;8.90;94.90;;;;;;5056426;28;20043;-86
2023/04/27 08:38:22;;;;;;;6.80;2.00;;;8.90;93.90;;;;;;5072367;28;20394;-86
2023/04/27 08:40:48;;;;;;;7.43;2.25;;;8.90;91.70;;;;;;5071891;28;20039;-86
2023/04/27 08:43:13;;;;;;;9.63;2.83;;;9.00;90.90;;;;;;5049180;28;20040;-87
2023/04/27 08:45:49;;;;;;;5.57;2.00;;;9.10;91.70;;;;;;5073961;28;20039;-86
2023/04/27 08:48:15;;;;;;;6.05;2.40;;;9.10;89.60;;;;;;5073370;28;20393;-87
2023/04/27 08:50:43;;;;;;;12.40;2.58;;;9.20;88.60;;;;;;5055158;28;20036;-87
2023/04/27 08:53:20;;;;;;;7.03;2.40;;;9.20;88.50;;;;;;5054185;28;20086;-86
2023/04/27 08:55:46;;;;;;;8.50;2.33;;;9.30;87.50;;;;;;5038458;28;20086;-87
2023/04/27 08:58:11;;;;;;;8.48;2.30;;;9.30;88.20;;;;;;5073276;28;20048;-87
2023/04/27 09:00:43;;;;;;;7.20;2.70;;;9.50;88.40;;;;;;5074203;28;20032;-87
2023/04/27 09:03:21;;;;;;;7.93;2.53;;;9.50;87.80;;;;;;5058151;28;20048;-87
2023/04/27 09:05:47;;;;;;;6.38;1.85;;;9.60;84.40;;;;;;5054314;28;20041;-87
2023/04/27 09:08:12;;;;;;;6.80;2.22;;;9.60;84.30;;;;;;5048598;28;20039;-87
2023/04/27 09:10:49;;;;;;;7.22;2.53;;;9.70;83.30;;;;;;5075082;28;20044;-87
2023/04/27 09:13:16;;;;;;;6.53;2.53;;;9.70;81.90;;;;;;5074833;28;20036;-87
2023/04/27 09:15:47;;;;;;;7.05;2.67;;;9.80;82.40;;;;;;5073525;28;20048;-87
2023/04/27 09:18:16;;;;;;;7.32;3.15;;;9.90;83.10;;;;;;5057749;28;20039;-87
2023/04/27 09:20:47;;;;;;;5.53;2.20;;;10.00;82.80;;;;;;5066220;28;20048;-87
2023/04/27 09:23:30;;;;;;;7.30;2.42;;;10.00;81.00;;;;;;5037300;28;20465;-87
2023/04/27 09:25:58;;;;;;;8.43;2.63;;;10.10;80.20;;;;;;5053413;28;20033;-87
2023/04/27 09:28:28;;;;;;;7.75;2.20;;;10.10;79.60;;;;;;5058754;28;20040;-86
2023/04/27 09:30:55;;;;;;;6.55;2.20;;;10.20;78.90;;;;;;5037891;28;20037;-87
2023/04/27 09:33:25;;;;;;;9.25;2.58;;;10.20;77.40;;;;;;5040895;28;20044;-87
2023/04/27 09:35:52;;;;;;;6.82;2.35;;;10.30;77.60;;;;;;5072881;28;20238;-86
2023/04/27 09:38:19;;;;;;;6.50;2.10;;;10.40;77.30;;;;;;5056993;28;20059;-86
2023/04/27 09:40:44;;;;;;;6.38;2.85;;;10.40;77.20;;;;;;5072650;28;20039;-86
2023/04/27 09:43:11;;;;;;;8.35;2.53;;;10.50;76.50;;;;;;5074025;28;20398;-86
2023/04/27 09:45:37;;;;;;;6.68;2.20;;;10.50;75.40;;;;;;5056048;28;20044;-86
2023/04/27 09:48:06;;;;;;;7.07;2.50;;;10.60;74.90;;;;;;5036761;28;20032;-86
2023/04/27 09:50:40;;;;;;;6.40;2.30;;;10.70;75.10;;;;;;5052526;28;20045;-86
2023/04/27 09:53:30;;;;;;;9.00;2.95;;;10.80;75.00;;;;;;5035928;28;20032;-87
2023/04/27 09:56:14;;;;;;;7.15;2.40;;;10.80;74.90;;;;;;5028970;28;20048;-87
2023/04/27 09:59:06;;;;;;;6.50;2.50;;;10.90;74.90;;;;;;5058987;28;20040;-87
2023/04/27 10:01:47;;;;;;;8.00;2.63;;;10.90;73.10;;;;;;5055825;28;20044;-87
2023/04/27 10:04:47;;;;;;;6.15;2.75;;;11.00;73.70;;;;;;5055821;28;20036;-87
2023/04/27 10:07:14;;;;;;;8.60;2.75;;;11.10;73.70;;;;;;5053297;28;20494;-86
2023/04/27 10:09:41;;;;;;;6.43;2.30;;;11.20;72.70;;;;;;5072322;28;20127;-87
2023/04/27 10:12:22;;;;;;;6.63;2.85;;;11.20;72.80;;;;;;5055130;28;20062;-87
2023/04/27 10:14:50;;;;;;;8.32;2.90;;;11.30;72.00;;;;;;5055498;28;20044;-87
2023/04/27 10:17:16;;;;;;;6.00;2.40;;;11.40;71.60;;;;;;5056134;28;20043;-86
2023/04/27 10:19:53;;;;;;;6.55;2.60;;;11.40;71.10;;;;;;5056083;28;20062;-87
2023/04/27 10:22:19;;;;;;;7.32;2.83;;;11.50;70.50;;;;;;5072578;28;20122;-87
2023/04/27 10:24:48;;;;;;;7.07;3.03;;;11.50;70.20;;;;;;5060647;28;20722;-87
2023/04/27 10:27:21;;;;;;;7.65;2.60;;;11.60;70.70;;;;;;5035854;28;20692;-87
2023/04/27 10:29:48;;;;;;;8.10;2.95;;;11.80;70.80;;;;;;5057556;28;20032;-87
2023/04/27 10:32:23;;;;;;;9.93;3.10;;;12.00;71.20;;;;;;5071877;28;20036;-87
2023/04/27 10:34:50;;;;;;;8.30;3.35;;;12.10;69.90;;;;;;5054607;28;20040;-87
2023/04/27 10:37:19;;;;;;;8.15;2.80;;;12.30;70.50;;;;;;5071936;28;20044;-87
2023/04/27 10:39:46;;;;;;;8.07;2.92;;;12.40;70.30;;;;;;5055193;28;20040;-87
2023/04/27 10:42:11;;;;;;;9.27;3.00;;;12.50;69.80;;;;;;5055444;28;20044;-87
2023/04/27 10:44:38;;;;;;;10.90;3.45;;;12.60;68.70;;;;;;5070058;28;20036;-87
2023/04/27 10:47:15;;;;;;;7.70;3.20;;;12.50;67.80;;;;;;5072106;28;20480;-87
2023/04/27 10:49:41;;;;;;;8.43;3.50;;;12.50;67.80;;;;;;5054645;28;20093;-87
2023/04/27 10:52:07;;;;;;;7.97;3.35;;;12.60;68.70;;;;;;5057449;28;20086;-87
2023/04/27 10:54:34;;;;;;;8.90;3.05;;;12.60;68.40;;;;;;5046795;28;20040;-87
2023/04/27 10:57:08;;;;;;;8.65;4.50;;;12.70;67.90;;;;;;5043178;28;20066;-87
2023/04/27 10:59:35;;;;;;;11.77;5.13;;;12.90;66.80;;;;;;5051014;28;20044;-87
2023/04/27 11:02:01;;;;;;;7.50;2.65;;;13.20;67.00;;;;;;5042109;28;20075;-87
2023/04/27 11:04:40;;;;;;;9.77;3.40;;;13.30;67.20;;;;;;5037026;28;20083;-87
2023/04/27 11:07:09;;;;;;;8.38;4.18;;;13.20;64.60;;;;;;5071581;28;20032;-88
2023/04/27 11:09:42;;;;;;;7.45;3.08;;;13.40;64.50;;;;;;5071261;28;20547;-88
2023/04/27 11:12:11;;;;;;;11.52;3.65;;;13.60;65.50;;;;;;5072644;28;20067;-87
2023/04/27 11:14:37;;;;;;;10.65;3.45;;;13.50;65.60;;;;;;5053945;28;20127;-87
2023/04/27 11:17:03;;;;;;;7.10;3.35;;;13.60;66.60;;;;;;5072049;28;20119;-88
2023/04/27 11:19:29;;;;;;;9.13;3.50;;;13.70;66.20;;;;;;5071677;28;20043;-85
2023/04/27 11:22:05;;;;;;;7.45;3.33;;;13.80;66.20;;;;;;5083680;28;20090;-85
2023/04/27 11:24:32;;;;;;;8.68;4.45;;;13.90;66.30;;;;;;5055253;28;20440;-85
2023/04/27 11:26:58;;;;;;;9.18;3.53;;;14.00;65.10;;;;;;5053582;28;20047;-85
2023/04/27 11:29:24;;;;;;;9.32;4.60;;;14.10;64.20;;;;;;5071809;28;20162;-85
2023/04/27 11:31:50;;;;;;;8.93;3.55;;;14.20;62.90;;;;;;5049943;28;20486;-85
2023/04/27 11:34:21;;;;;;;8.75;4.30;;;14.10;63.70;;;;;;5063004;28;20032;-84
2023/04/27 11:37:04;;;;;;;9.02;3.05;;;14.20;61.30;;;;;;5052415;28;20036;-85
2023/04/27 11:39:35;;;;;;;;;;;14.10;62.00;;;;;;5035819;28;20545;-85
2023/04/27 11:42:33;;;;;;;10.57;4.20;;;14.10;60.30;;;;;;5052106;28;19916;-85
2023/04/27 11:45:02;;;;;;;7.55;3.22;;;14.10;59.60;;;;;;5013030;28;20052;-84
2023/04/27 11:47:29;;;;;;;7.95;3.22;;;14.10;62.50;;;;;;5051918;28;20045;-84
2023/04/27 11:49:57;;;;;;;8.15;4.20;;;14.10;61.40;;;;;;5034565;28;20498;-84
2023/04/27 11:52:34;;;;;;;7.50;3.83;;;14.20;59.40;;;;;;5035451;28;20067;-84
2023/04/27 11:55:01;;;;;;;9.00;3.70;;;14.30;58.50;;;;;;5055659;28;20083;-84
2023/04/27 11:57:35;;;;;;;10.18;4.30;;;14.40;59.50;;;;;;5075144;28;20078;-84
2023/04/27 12:00:09;;;;;;;10.55;4.00;;;14.40;59.50;;;;;;5055019;28;20036;-85
2023/04/27 12:02:35;;;;;;;8.07;3.78;;;14.50;59.80;;;;;;5055766;28;20097;-84
2023/04/27 12:05:02;;;;;;;10.13;3.92;;;14.60;58.80;;;;;;5053417;28;20641;-84
2023/04/27 12:07:27;;;;;;;9.32;3.90;;;14.80;58.40;;;;;;5071679;28;20036;-85
2023/04/27 12:09:53;;;;;;;7.38;3.22;;;14.90;58.10;;;;;;5054529;28;20648;-84
2023/04/27 12:12:21;;;;;;;7.47;2.85;;;15.00;58.90;;;;;;5034230;28;20028;-85
2023/04/27 12:14:47;;;;;;;8.00;3.95;;;15.00;59.30;;;;;;5036806;28;20055;-85
2023/04/27 12:17:13;;;;;;;9.50;4.30;;;15.10;57.70;;;;;;5060054;28;20032;-84
2023/04/27 12:19:39;;;;;;;10.32;3.53;;;15.20;56.20;;;;;;5056778;28;20052;-85
2023/04/27 12:22:05;;;;;;;8.75;3.95;;;15.30;57.20;;;;;;5037914;28;20082;-85
2023/04/27 12:24:31;;;;;;;8.00;4.25;;;15.30;57.40;;;;;;5063663;28;20455;-84
2023/04/27 12:26:58;;;;;;;7.65;4.13;;;15.40;57.60;;;;;;5057936;28;20489;-84
2023/04/27 12:29:24;;;;;;;9.30;4.20;;;15.50;56.30;;;;;;5074057;28;20036;-84
2023/04/27 12:31:50;;;;;;;9.00;3.80;;;15.50;56.70;;;;;;5073616;28;20481;-85
2023/04/27 12:34:16;;;;;;;8.38;3.40;;;15.60;56.40;;;;;;5057806;28;20075;-84
2023/04/27 12:36:42;;;;;;;9.43;4.20;;;15.40;56.10;;;;;;5054714;28;20036;-84
2023/04/27 12:39:19;;;;;;;8.95;4.18;;;15.50;55.40;;;;;;5038175;28;20101;-84
2023/04/27 12:41:46;;;;;;;8.25;3.75;;;15.50;53.80;;;;;;5037568;28;20045;-84
2023/04/27 12:44:13;;;;;;;8.55;4.30;;;15.40;54.50;;;;;;5061638;28;20040;-84
2023/04/27 12:46:40;;;;;;;9.77;4.80;;;15.40;53.40;;;;;;5054494;28;20064;-84
2023/04/27 12:49:06;;;;;;;8.65;4.45;;;15.40;54.00;;;;;;5037508;28;20111;-85
2023/04/27 12:51:35;;;;;;;8.45;3.20;;;15.50;56.00;;;;;;5054446;28;20051;-84